createdAt,value
2023-04-24T00:01:23.491Z,99559.21
2023-04-24T00:06:25.285Z,99554.56
2023-04-24T00:11:27.873Z,99550.44
2023-04-24T00:16:29.662Z,99549.89
2023-04-24T00:21:31.211Z,99541.21
2023-04-24T00:26:32.694Z,99537.63
2023-04-24T00:31:36.060Z,99535.80
2023-04-24T00:36:37.761Z,99533.77
2023-04-24T00:41:39.251Z,99529.67
2023-04-24T00:46:41.507Z,99522.66
2023-04-24T00:51:46.559Z,99520.45
2023-04-24T00:56:48.392Z,99520.04
2023-04-24T01:01:50.107Z,99521.05
2023-04-24T01:06:53.485Z,99519.66
2023-04-24T01:11:55.795Z,99516.38
2023-04-24T01:16:58.681Z,99517.13
2023-04-24T01:22:03.365Z,99515.89
2023-04-24T01:27:05.006Z,99512.25
2023-04-24T01:32:07.113Z,99515.35
2023-04-24T01:37:08.678Z,99518.27
2023-04-24T01:42:10.631Z,99509.85
2023-04-24T01:47:12.774Z,99507.73
2023-04-24T01:52:14.317Z,99500.37
2023-04-24T01:57:17.289Z,99498.73
2023-04-24T02:02:19.425Z,99486.81
2023-04-24T02:07:21.542Z,99491.11
2023-04-24T02:12:23.045Z,99483.27
2023-04-24T02:17:24.565Z,99483.59
2023-04-24T02:22:26.102Z,99485.83
2023-04-24T02:27:27.599Z,99475.67
2023-04-24T02:32:29.156Z,99470.38
2023-04-24T02:37:31.184Z,99464.09
2023-04-24T02:42:32.644Z,99456.07
2023-04-24T02:47:34.175Z,99454.02
2023-04-24T02:52:35.868Z,99454.73
2023-04-24T02:57:37.343Z,99450.30
2023-04-24T03:02:38.967Z,99454.43
2023-04-24T03:07:40.792Z,99457.54
2023-04-24T03:12:42.371Z,99456.39
2023-04-24T03:17:43.933Z,99459.58
2023-04-24T03:22:45.705Z,99457.31
2023-04-24T03:27:47.273Z,99461.86
2023-04-24T03:32:49.099Z,99460.15
2023-04-24T03:37:50.634Z,99458.48
2023-04-24T03:42:52.131Z,99463.08
2023-04-24T03:47:53.656Z,99467.85
2023-04-24T03:52:55.267Z,99466.06
2023-04-24T03:57:56.738Z,99461.44
2023-04-24T04:02:58.555Z,99467.77
2023-04-24T04:08:00.307Z,99467.93
2023-04-24T04:13:02.048Z,99473.99
2023-04-24T04:18:03.724Z,99478.83
2023-04-24T04:23:05.370Z,99477.16
2023-04-24T04:28:07.336Z,99477.19
2023-04-24T04:33:09.303Z,99478.65
2023-04-24T04:38:11.910Z,99475.26
2023-04-24T04:43:17.064Z,99471.66
2023-04-24T04:48:19.737Z,99472.13
2023-04-24T04:53:21.434Z,99467.80
2023-04-24T04:58:22.941Z,99469.00
2023-04-24T05:03:24.552Z,99467.28
2023-04-24T05:08:27.788Z,99466.14
2023-04-24T05:13:38.980Z,99460.01
2023-04-24T05:18:42.484Z,99458.19
2023-04-24T05:23:44.043Z,99458.55
2023-04-24T05:28:45.626Z,99455.99
2023-04-24T05:33:47.114Z,99459.19
2023-04-24T05:38:48.929Z,99453.88
2023-04-24T05:43:51.008Z,99449.04
2023-04-24T05:48:52.574Z,99453.72
2023-04-24T05:53:54.095Z,99453.15
2023-04-24T05:58:56.547Z,99453.45
2023-04-24T06:03:58.550Z,99445.88
2023-04-24T06:09:00.156Z,99442.38
2023-04-24T06:14:01.715Z,99439.20
2023-04-24T06:19:03.220Z,99443.24
2023-04-24T06:24:05.622Z,99438.41
2023-04-24T06:29:08.306Z,99429.94
2023-04-24T06:34:09.884Z,99424.30
2023-04-24T06:39:11.490Z,99420.56
2023-04-24T06:44:12.990Z,99417.09
2023-04-24T06:49:17.298Z,99420.35
2023-04-24T06:54:19.016Z,99419.01
2023-04-24T06:59:20.952Z,99415.38
2023-04-24T07:04:22.875Z,99414.09
2023-04-24T07:09:29.474Z,99410.97
2023-04-24T07:14:31.556Z,99413.36
2023-04-24T07:19:36.380Z,99408.45
2023-04-24T07:24:37.867Z,99404.35
2023-04-24T07:29:40.521Z,99403.40
2023-04-24T07:34:42.099Z,99404.57
2023-04-24T07:39:44.039Z,99408.58
2023-04-24T07:44:47.704Z,99409.88
2023-04-24T07:49:49.292Z,99408.34
2023-04-24T07:54:51.054Z,99402.17
2023-04-24T07:59:52.922Z,99399.04
2023-04-24T08:04:55.573Z,99392.23
2023-04-24T08:09:57.221Z,99384.01
2023-04-24T08:14:58.789Z,99390.71
2023-04-24T08:20:02.608Z,99391.45
2023-04-24T08:25:05.423Z,99388.15
2023-04-24T08:30:08.492Z,99385.17
2023-04-24T08:35:10.735Z,99386.61
2023-04-24T08:40:17.138Z,99389.45
2023-04-24T08:45:18.719Z,99388.30
2023-04-24T08:50:20.894Z,99395.87
2023-04-24T08:55:23.029Z,99391.38
2023-04-24T09:00:24.725Z,99387.42
2023-04-24T09:05:28.344Z,99391.14
2023-04-24T09:10:31.571Z,99390.24
2023-04-24T09:15:33.465Z,99383.45
2023-04-24T09:20:37.231Z,99385.27
2023-04-24T09:25:39.145Z,99378.33
2023-04-24T09:30:40.703Z,99372.66
2023-04-24T09:35:52.946Z,99373.15
2023-04-24T09:40:54.473Z,99366.91
2023-04-24T09:46:00.791Z,99366.29
2023-04-24T09:51:04.416Z,99357.18
2023-04-24T09:56:11.017Z,99356.85
2023-04-24T10:01:13.503Z,99352.33
2023-04-24T10:06:16.172Z,99352.81
2023-04-24T10:11:18.076Z,99340.32
2023-04-24T10:16:22.507Z,99344.84
2023-04-24T10:21:24.240Z,99340.30
2023-04-24T10:26:25.849Z,99333.36
2023-04-24T10:31:32.060Z,99326.67
2023-04-24T10:36:40.319Z,99327.05
2023-04-24T10:41:41.870Z,99318.63
2023-04-24T10:46:49.351Z,99313.51
2023-04-24T10:51:54.506Z,99311.73
2023-04-24T10:57:31.154Z,99308.48
2023-04-24T11:02:41.296Z,99305.10
2023-04-24T11:08:15.582Z,99299.73
2023-04-24T11:13:18.459Z,99298.40
2023-04-24T11:18:20.082Z,99291.66
2023-04-24T11:23:22.073Z,99292.36
2023-04-24T11:28:25.607Z,99292.84
2023-04-24T11:33:27.171Z,99288.64
2023-04-24T11:38:29.496Z,99285.04
2023-04-24T11:43:33.904Z,99278.64
2023-04-24T11:48:37.384Z,99271.45
2023-04-24T11:53:38.929Z,99266.55
2023-04-24T11:58:40.430Z,99261.79
2023-04-24T12:03:47.751Z,99251.05
2023-04-24T12:08:49.712Z,99248.42
2023-04-24T12:13:51.542Z,99240.23
2023-04-24T12:18:53.077Z,99235.96
2023-04-24T12:23:57.329Z,99243.34
2023-04-24T12:29:04.337Z,99257.67
2023-04-24T12:34:25.967Z,99269.88
2023-04-24T12:39:27.802Z,99273.54
2023-04-24T12:44:35.987Z,99272.56
2023-04-24T12:49:37.584Z,99267.58
2023-04-24T12:54:39.157Z,99258.04
2023-04-24T12:59:40.717Z,99256.86
2023-04-24T13:04:42.194Z,99256.02
2023-04-24T13:09:45.611Z,99265.45
2023-04-24T13:14:47.978Z,99259.90
2023-04-24T13:19:52.470Z,99245.46
2023-04-24T13:24:54.076Z,99234.77
2023-04-24T13:29:55.635Z,99229.82
2023-04-24T13:34:58.065Z,99225.89
2023-04-24T13:39:59.477Z,99222.00
2023-04-24T13:45:06.103Z,99213.52
2023-04-24T13:50:16.230Z,99191.52
2023-04-24T13:55:17.856Z,99183.10
2023-04-24T14:00:26.415Z,99187.40
2023-04-24T14:05:28.819Z,99188.12
2023-04-24T14:10:31.010Z,99183.77
2023-04-24T14:15:32.541Z,99183.95
2023-04-24T14:20:34.067Z,99183.17
2023-04-24T14:25:35.755Z,99178.41
2023-04-24T14:30:41.520Z,99173.83
2023-04-24T14:35:43.866Z,99173.48
2023-04-24T14:41:05.655Z,99171.05
2023-04-24T14:46:06.906Z,99160.86
2023-04-24T14:51:08.547Z,99156.85
2023-04-24T14:56:10.117Z,99149.77
2023-04-24T15:01:11.981Z,99142.95
2023-04-24T15:06:13.657Z,99139.04
2023-04-24T15:11:15.265Z,99133.17
2023-04-24T15:16:17.250Z,99128.92
2023-04-24T15:21:18.883Z,99122.70
2023-04-24T15:26:20.917Z,99122.12
2023-04-24T15:31:24.014Z,99112.69
2023-04-24T15:36:25.923Z,99107.59
2023-04-24T15:41:27.427Z,99102.94
2023-04-24T15:46:29.171Z,99096.82
2023-04-24T15:51:31.757Z,99094.09
2023-04-24T15:56:33.600Z,99085.48
2023-04-24T16:01:35.178Z,99085.57
2023-04-24T16:06:37.024Z,99082.20
2023-04-24T16:11:39.705Z,99077.36
2023-04-24T16:16:41.393Z,99074.70
2023-04-24T16:21:42.906Z,99069.69
2023-04-24T16:26:44.664Z,99066.27
2023-04-24T16:31:46.234Z,99062.09
2023-04-24T16:36:47.877Z,99063.39
2023-04-24T16:41:49.822Z,99063.29
2023-04-24T16:46:51.956Z,99068.73
2023-04-24T16:51:53.579Z,99068.48
2023-04-24T16:56:55.336Z,99069.98
2023-04-24T17:01:56.941Z,99070.17
2023-04-24T17:06:58.508Z,99067.61
2023-04-24T17:12:00.154Z,99067.95
2023-04-24T17:17:02.128Z,99070.55
2023-04-24T17:22:06.260Z,99071.84
2023-04-24T17:27:14.313Z,99070.05
2023-04-24T17:32:16.419Z,99072.34
2023-04-24T17:37:19.843Z,99071.27
2023-04-24T17:42:21.343Z,99079.86
2023-04-24T17:47:26.219Z,99084.09
2023-04-24T17:52:27.800Z,99087.95
2023-04-24T17:57:29.381Z,99088.85
2023-04-24T18:02:31.161Z,99085.84
2023-04-24T18:07:34.126Z,99088.95
2023-04-24T18:12:35.765Z,99090.10
2023-04-24T18:17:37.322Z,99094.75
2023-04-24T18:22:39.740Z,99097.45
2023-04-24T18:27:42.015Z,99097.49
2023-04-24T18:32:43.632Z,99096.86
2023-04-24T18:37:46.351Z,99099.45
2023-04-24T18:42:48.238Z,99103.20
2023-04-24T18:47:50.274Z,99111.80
2023-04-24T18:52:51.858Z,99118.85
2023-04-24T18:57:53.452Z,99120.98
2023-04-24T19:02:55.060Z,99123.56
2023-04-24T19:07:56.707Z,99128.39
2023-04-24T19:12:58.390Z,99126.17
2023-04-24T19:18:00.661Z,99129.35
2023-04-24T19:23:02.361Z,99126.86
2023-04-24T19:28:03.859Z,99132.63
2023-04-24T19:33:05.781Z,99126.09
2023-04-24T19:38:07.368Z,99127.59
2023-04-24T19:43:08.890Z,99128.46
2023-04-24T19:48:10.440Z,99122.91
2023-04-24T19:53:12.348Z,99122.52
2023-04-24T19:58:13.846Z,99122.48
2023-04-24T20:03:25.403Z,99123.79
2023-04-24T20:08:38.948Z,99124.73
2023-04-24T20:13:40.590Z,99128.44
2023-04-24T20:18:42.252Z,99132.66
2023-04-24T20:23:43.738Z,99134.97
2023-04-24T20:28:45.541Z,99142.39
2023-04-24T20:33:47.037Z,99143.75
2023-04-24T20:38:48.880Z,99146.48
2023-04-24T20:43:50.937Z,99150.13
2023-04-24T20:48:52.468Z,99154.98
2023-04-24T20:53:53.987Z,99156.23
2023-04-24T20:58:57.107Z,99153.73
2023-04-24T21:03:59.269Z,99166.59
2023-04-24T21:09:00.902Z,99169.38
2023-04-24T21:14:02.821Z,99170.77
2023-04-24T21:19:05.391Z,99174.30
2023-04-24T21:24:07.290Z,99176.04
2023-04-24T21:29:08.804Z,99167.27
2023-04-24T21:34:10.529Z,99163.20
2023-04-24T21:39:11.993Z,99157.91
2023-04-24T21:44:13.634Z,99156.92
2023-04-24T21:49:15.134Z,99160.81
2023-04-24T21:54:17.044Z,99157.84
2023-04-24T21:59:19.034Z,99157.90
2023-04-24T22:04:20.982Z,99156.70
2023-04-24T22:09:22.850Z,99156.68
2023-04-24T22:14:24.452Z,99156.52
2023-04-24T22:19:26.444Z,99160.05
2023-04-24T22:24:28.472Z,99160.56
2023-04-24T22:29:31.028Z,99163.06
2023-04-24T22:34:32.574Z,99166.22
2023-04-24T22:39:34.111Z,99167.13
2023-04-24T22:44:35.935Z,99167.80
2023-04-24T22:49:37.970Z,99167.57
2023-04-24T22:54:39.488Z,99166.41
2023-04-24T22:59:41.065Z,99170.52
2023-04-24T23:04:42.628Z,99174.81
2023-04-24T23:09:44.186Z,99173.98
2023-04-24T23:14:45.695Z,99173.66
2023-04-24T23:19:47.435Z,99173.41
2023-04-24T23:24:48.915Z,99162.14
2023-04-24T23:29:50.641Z,99155.70
2023-04-24T23:34:52.243Z,99158.94
2023-04-24T23:39:53.773Z,99160.03
2023-04-24T23:44:55.300Z,99164.35
2023-04-24T23:49:56.913Z,99161.79
2023-04-24T23:54:58.659Z,99159.30
